createdAt,value
2024-05-09T00:01:28.303Z,7.90
2024-05-09T00:03:30.177Z,7.90
2024-05-09T00:05:32.149Z,7.90
2024-05-09T00:07:34.541Z,7.80
2024-05-09T00:09:37.504Z,7.80
2024-05-09T00:11:39.369Z,7.70
2024-05-09T00:13:41.190Z,7.70
2024-05-09T00:15:42.956Z,7.70
2024-05-09T00:17:44.985Z,7.70
2024-05-09T00:19:47.064Z,7.70
2024-05-09T00:21:48.996Z,7.70
2024-05-09T00:23:50.798Z,7.60
2024-05-09T00:25:52.669Z,7.60
2024-05-09T00:27:54.550Z,7.60
2024-05-09T00:29:56.333Z,7.50
2024-05-09T00:31:58.283Z,7.50
2024-05-09T00:34:00.505Z,7.50
2024-05-09T00:36:02.519Z,7.50
2024-05-09T00:38:04.912Z,7.50
2024-05-09T00:40:09.511Z,7.50
2024-05-09T00:42:13.784Z,7.50
2024-05-09T00:44:15.729Z,7.40
2024-05-09T00:46:17.883Z,7.40
2024-05-09T00:48:21.479Z,7.50
2024-05-09T00:50:29.964Z,7.40
2024-05-09T00:52:38.002Z,7.40
2024-05-09T00:54:39.839Z,7.40
2024-05-09T00:56:42.095Z,7.40
2024-05-09T00:58:44.184Z,7.40
2024-05-09T01:00:46.871Z,7.40
2024-05-09T01:02:48.842Z,7.40
2024-05-09T01:04:53.293Z,7.40
2024-05-09T01:06:55.266Z,7.40
2024-05-09T01:08:57.060Z,7.30
2024-05-09T01:10:58.967Z,7.30
2024-05-09T01:13:00.869Z,7.40
2024-05-09T01:15:02.644Z,7.30
2024-05-09T01:17:04.999Z,7.30
2024-05-09T01:19:16.528Z,7.30
2024-05-09T01:21:18.577Z,7.20
2024-05-09T01:23:20.511Z,7.20
2024-05-09T01:25:22.399Z,7.20
2024-05-09T01:27:24.320Z,7.20
2024-05-09T01:29:26.376Z,7.20
2024-05-09T01:31:28.272Z,7.10
2024-05-09T01:33:30.348Z,7.10
2024-05-09T01:35:32.218Z,7.10
2024-05-09T01:37:34.078Z,7.10
2024-05-09T01:39:35.939Z,7.10
2024-05-09T01:41:37.862Z,7.10
2024-05-09T01:43:39.644Z,7.10
2024-05-09T01:45:41.768Z,7.10
2024-05-09T01:47:43.784Z,7.10
2024-05-09T01:49:45.720Z,7.10
2024-05-09T01:51:47.605Z,7.10
2024-05-09T01:53:49.574Z,7.10
2024-05-09T01:55:51.485Z,7.10
2024-05-09T01:57:53.407Z,7.00
2024-05-09T01:59:55.224Z,7.10
2024-05-09T02:01:57.904Z,7.00
2024-05-09T02:04:00.116Z,7.10
2024-05-09T02:06:02.301Z,7.10
2024-05-09T02:08:05.211Z,7.10
2024-05-09T02:10:13.763Z,7.10
2024-05-09T02:12:18.638Z,7.10
2024-05-09T02:14:20.996Z,7.10
2024-05-09T02:16:22.938Z,7.00
2024-05-09T02:18:24.984Z,7.00
2024-05-09T02:20:33.426Z,7.00
2024-05-09T02:22:38.074Z,7.00
2024-05-09T02:24:40.146Z,7.00
2024-05-09T02:26:42.006Z,6.90
2024-05-09T02:28:43.948Z,6.90
2024-05-09T02:30:45.742Z,6.90
2024-05-09T02:32:47.766Z,6.90
2024-05-09T02:34:49.739Z,6.90
2024-05-09T02:36:51.655Z,6.90
2024-05-09T02:38:53.436Z,6.90
2024-05-09T02:40:55.365Z,6.80
2024-05-09T02:42:57.944Z,6.80
2024-05-09T02:44:59.695Z,6.80
2024-05-09T02:47:01.583Z,6.80
2024-05-09T02:49:03.451Z,6.80
2024-05-09T02:51:05.560Z,6.90
2024-05-09T02:53:08.910Z,6.90
2024-05-09T02:55:11.405Z,6.90
2024-05-09T02:57:13.249Z,6.90
2024-05-09T02:59:16.020Z,6.90
2024-05-09T03:01:18.210Z,6.80
2024-05-09T03:03:20.236Z,6.80
2024-05-09T03:05:22.216Z,6.70
2024-05-09T03:07:24.037Z,6.80
2024-05-09T03:09:25.830Z,6.70
2024-05-09T03:11:27.738Z,6.70
2024-05-09T03:13:29.678Z,6.70
2024-05-09T03:15:32.839Z,6.70
2024-05-09T03:17:35.150Z,6.70
2024-05-09T03:19:37.349Z,6.70
2024-05-09T03:21:40.241Z,6.70
2024-05-09T03:23:42.801Z,6.70
2024-05-09T03:25:44.764Z,6.70
2024-05-09T03:27:46.684Z,6.60
2024-05-09T03:29:48.479Z,6.60
2024-05-09T03:31:50.466Z,6.60
2024-05-09T03:33:52.804Z,6.70
2024-05-09T03:35:54.764Z,6.70
2024-05-09T03:37:56.616Z,6.70
2024-05-09T03:39:58.552Z,6.60
2024-05-09T03:42:00.630Z,6.60
2024-05-09T03:44:03.770Z,6.60
2024-05-09T03:46:05.622Z,6.60
2024-05-09T03:48:08.359Z,6.60
2024-05-09T03:50:18.143Z,6.60
2024-05-09T03:52:27.388Z,6.60
2024-05-09T03:54:29.222Z,6.60
2024-05-09T03:56:31.153Z,6.60
2024-05-09T03:58:33.052Z,6.60
2024-05-09T04:00:38.849Z,6.60
2024-05-09T04:02:48.018Z,6.60
2024-05-09T04:04:49.871Z,6.60
2024-05-09T04:06:51.787Z,6.60
2024-05-09T04:08:53.684Z,6.60
2024-05-09T04:12:57.488Z,6.60
2024-05-09T04:14:59.356Z,6.70
2024-05-09T04:17:01.171Z,6.70
2024-05-09T04:19:03.117Z,6.70
2024-05-09T04:21:05.428Z,6.80
2024-05-09T04:23:10.849Z,6.80
2024-05-09T04:25:12.905Z,6.90
2024-05-09T04:27:14.725Z,6.80
2024-05-09T04:29:16.598Z,6.90
2024-05-09T04:31:18.423Z,6.90
2024-05-09T04:33:20.884Z,7.00
2024-05-09T04:35:23.001Z,7.00
2024-05-09T04:37:25.589Z,7.00
2024-05-09T04:39:27.868Z,7.10
2024-05-09T04:41:30.129Z,7.20
2024-05-09T04:43:33.286Z,7.30
2024-05-09T04:45:35.564Z,7.30
2024-05-09T04:47:37.755Z,7.40
2024-05-09T04:49:39.750Z,7.50
2024-05-09T04:51:41.938Z,7.50
2024-05-09T04:53:43.847Z,7.60
2024-05-09T04:55:45.962Z,7.60
2024-05-09T04:57:47.917Z,7.70
2024-05-09T04:59:49.744Z,7.70
2024-05-09T05:01:51.630Z,7.70
2024-05-09T05:03:55.885Z,7.80
2024-05-09T05:05:57.988Z,7.90
2024-05-09T05:08:00.727Z,7.90
2024-05-09T05:10:04.529Z,8.00
2024-05-09T05:12:28.038Z,8.00
2024-05-09T05:14:30.206Z,8.10
2024-05-09T05:16:32.088Z,8.20
2024-05-09T05:18:34.396Z,8.30
2024-05-09T05:20:36.442Z,8.30
2024-05-09T05:22:38.338Z,8.40
2024-05-09T05:24:40.249Z,8.50
2024-05-09T05:26:42.146Z,8.50
2024-05-09T05:28:44.111Z,8.60
2024-05-09T05:30:46.681Z,8.70
2024-05-09T05:32:48.789Z,8.70
2024-05-09T05:34:50.761Z,8.80
2024-05-09T05:36:52.662Z,8.90
2024-05-09T05:38:54.571Z,8.90
2024-05-09T05:40:56.563Z,9.00
2024-05-09T05:42:58.490Z,9.10
2024-05-09T05:45:00.458Z,9.20
2024-05-09T05:47:02.322Z,9.20
2024-05-09T05:49:04.201Z,9.30
2024-05-09T05:51:07.732Z,9.30
2024-05-09T05:53:10.731Z,9.40
2024-05-09T05:55:12.814Z,9.50
2024-05-09T05:57:17.919Z,9.50
2024-05-09T05:59:19.734Z,9.60
2024-05-09T06:01:21.579Z,9.60
2024-05-09T06:03:23.937Z,9.70
2024-05-09T06:05:27.598Z,9.70
2024-05-09T06:07:29.553Z,9.80
2024-05-09T06:09:31.717Z,9.80
2024-05-09T06:11:33.563Z,9.90
2024-05-09T06:13:35.415Z,10.00
2024-05-09T06:15:37.693Z,10.10
2024-05-09T06:17:39.655Z,10.10
2024-05-09T06:19:41.550Z,10.20
2024-05-09T06:21:43.341Z,10.20
2024-05-09T06:23:49.487Z,10.30
2024-05-09T06:25:51.316Z,10.40
2024-05-09T06:27:53.207Z,10.50
2024-05-09T06:29:55.067Z,10.60
2024-05-09T06:31:59.482Z,10.70
2024-05-09T06:34:02.039Z,10.70
2024-05-09T06:36:04.090Z,10.80
2024-05-09T06:38:09.042Z,10.90
2024-05-09T06:40:12.577Z,11.00
2024-05-09T06:42:16.398Z,11.10
2024-05-09T06:44:18.283Z,11.30
2024-05-09T06:46:20.103Z,11.40
2024-05-09T06:48:22.670Z,11.50
2024-05-09T06:50:28.323Z,11.70
2024-05-09T06:52:33.534Z,11.90
2024-05-09T06:54:35.556Z,12.10
2024-05-09T06:56:38.900Z,12.50
2024-05-09T06:58:40.746Z,13.00
2024-05-09T07:00:42.694Z,13.80
2024-05-09T07:02:44.737Z,14.50
2024-05-09T07:04:46.746Z,15.30
2024-05-09T07:06:48.699Z,15.90
2024-05-09T07:08:52.390Z,16.70
2024-05-09T07:10:54.467Z,17.20
2024-05-09T07:12:56.356Z,17.90
2024-05-09T07:14:58.194Z,18.60
2024-05-09T07:17:00.121Z,19.00
2024-05-09T07:19:02.096Z,18.90
2024-05-09T07:21:04.171Z,18.90
2024-05-09T07:23:08.505Z,19.20
2024-05-09T07:25:10.345Z,19.40
2024-05-09T07:27:12.220Z,20.00
2024-05-09T07:29:14.036Z,20.20
2024-05-09T07:31:16.145Z,20.70
2024-05-09T07:33:23.354Z,21.20
2024-05-09T07:35:26.370Z,21.20
2024-05-09T07:37:28.433Z,21.20
2024-05-09T07:39:30.238Z,21.30
2024-05-09T07:41:32.200Z,21.50
2024-05-09T07:43:34.074Z,21.60
2024-05-09T07:49:12.000Z,20.90
2024-05-09T07:51:54.772Z,20.90
2024-05-09T07:54:34.439Z,21.50
2024-05-09T07:56:36.508Z,20.70
2024-05-09T07:58:38.941Z,20.90
2024-05-09T08:00:40.849Z,21.20
2024-05-09T08:02:42.803Z,21.40
2024-05-09T08:04:44.775Z,21.50
2024-05-09T08:06:46.637Z,21.20
2024-05-09T08:08:48.675Z,21.30
2024-05-09T08:10:51.136Z,21.10
2024-05-09T08:12:54.008Z,21.70
2024-05-09T08:14:56.388Z,22.20
2024-05-09T08:16:58.251Z,22.30
2024-05-09T08:19:00.387Z,22.20
2024-05-09T08:21:02.501Z,21.80
2024-05-09T08:23:04.678Z,21.20
2024-05-09T08:25:06.831Z,21.50
2024-05-09T08:27:08.734Z,22.10
2024-05-09T08:29:10.869Z,22.20
2024-05-09T08:31:12.806Z,22.50
2024-05-09T08:33:14.982Z,22.70
2024-05-09T08:35:16.993Z,23.20
2024-05-09T08:37:22.420Z,23.90
2024-05-09T08:39:26.585Z,24.40
2024-05-09T08:41:30.484Z,24.70
2024-05-09T08:43:32.627Z,25.00
2024-05-09T08:45:35.823Z,24.60
2024-05-09T08:47:37.881Z,24.30
2024-05-09T08:49:41.705Z,24.40
2024-05-09T08:51:44.445Z,24.70
2024-05-09T08:53:46.286Z,24.30
2024-05-09T08:55:51.056Z,24.50
2024-05-09T08:57:53.604Z,24.40
2024-05-09T09:00:00.099Z,24.20
2024-05-09T09:02:04.552Z,24.60
2024-05-09T09:04:08.077Z,24.40
2024-05-09T09:06:12.615Z,23.60
2024-05-09T09:08:15.728Z,22.40
2024-05-09T09:10:29.193Z,21.30
2024-05-09T09:12:34.147Z,20.50
2024-05-09T09:14:36.023Z,19.90
2024-05-09T09:16:38.004Z,19.70
2024-05-09T09:18:43.685Z,19.60
2024-05-09T09:20:45.799Z,19.30
2024-05-09T09:22:47.711Z,18.80
2024-05-09T09:24:49.534Z,18.40
2024-05-09T09:26:51.476Z,18.20
2024-05-09T09:28:53.421Z,17.80
2024-05-09T09:31:01.558Z,17.90
2024-05-09T09:33:03.651Z,18.90
2024-05-09T09:35:06.068Z,20.30
2024-05-09T09:37:10.581Z,21.50
2024-05-09T09:39:16.654Z,22.10
2024-05-09T09:41:21.611Z,22.00
2024-05-09T09:43:23.764Z,21.90
2024-05-09T09:45:28.206Z,21.50
2024-05-09T09:47:32.129Z,20.70
2024-05-09T09:49:36.676Z,20.30
2024-05-09T09:51:43.595Z,20.70
2024-05-09T09:53:47.328Z,21.10
2024-05-09T09:55:50.031Z,21.60
2024-05-09T09:57:55.956Z,21.90
2024-05-09T09:59:58.993Z,21.90
2024-05-09T10:02:01.135Z,21.90
2024-05-09T10:04:04.931Z,21.80
2024-05-09T10:06:08.778Z,22.20
2024-05-09T10:08:11.631Z,23.30
2024-05-09T10:10:29.942Z,23.10
2024-05-09T10:12:34.437Z,22.50
2024-05-09T10:14:45.916Z,22.20
2024-05-09T10:16:48.039Z,22.30
2024-05-09T10:18:50.051Z,21.90
2024-05-09T10:20:53.267Z,22.20
2024-05-09T10:22:55.145Z,22.80
2024-05-09T10:25:05.574Z,23.90
2024-05-09T10:27:07.455Z,24.50
2024-05-09T10:29:19.902Z,24.30
2024-05-09T10:31:22.072Z,24.40
2024-05-09T10:33:24.381Z,24.70
2024-05-09T10:35:31.143Z,24.40
2024-05-09T10:37:33.788Z,24.30
2024-05-09T10:39:37.277Z,23.80
2024-05-09T10:41:39.869Z,23.00
2024-05-09T10:43:42.162Z,23.40
2024-05-09T10:45:44.035Z,24.10
2024-05-09T10:47:46.027Z,24.70
2024-05-09T10:49:49.333Z,25.50
2024-05-09T10:51:51.989Z,25.30
2024-05-09T10:53:54.075Z,26.00
2024-05-09T10:56:05.333Z,26.40
2024-05-09T10:58:17.514Z,26.80
2024-05-09T11:00:27.468Z,26.50
2024-05-09T11:02:35.176Z,26.00
2024-05-09T11:04:39.313Z,25.50
2024-05-09T11:06:41.517Z,25.30
2024-05-09T11:08:45.735Z,25.10
2024-05-09T11:10:50.604Z,24.80
2024-05-09T11:12:52.513Z,24.50
2024-05-09T11:14:54.739Z,24.40
2024-05-09T11:17:06.146Z,24.30
2024-05-09T11:19:13.000Z,24.60
2024-05-09T11:21:14.958Z,25.10
2024-05-09T11:23:17.595Z,25.70
2024-05-09T11:25:19.595Z,25.80
2024-05-09T11:27:23.515Z,25.40
2024-05-09T11:29:43.169Z,24.60
2024-05-09T11:31:46.654Z,24.70
2024-05-09T11:33:48.926Z,25.30
2024-05-09T11:35:50.864Z,25.90
2024-05-09T11:37:52.702Z,26.00
2024-05-09T11:39:54.607Z,25.70
2024-05-09T11:41:57.364Z,26.00
2024-05-09T11:43:59.177Z,26.60
2024-05-09T11:46:02.666Z,27.60
2024-05-09T11:48:05.354Z,28.10
2024-05-09T11:50:08.336Z,28.30
2024-05-09T11:52:14.763Z,27.50
2024-05-09T11:54:16.693Z,26.30
2024-05-09T11:56:18.533Z,25.20
2024-05-09T11:58:21.533Z,24.80
2024-05-09T12:02:28.249Z,24.00
2024-05-09T12:04:30.420Z,23.50
2024-05-09T12:06:32.631Z,23.20
2024-05-09T12:08:34.487Z,22.70
2024-05-09T12:10:37.032Z,23.20
2024-05-09T12:12:39.230Z,24.20
2024-05-09T12:14:41.078Z,24.10
2024-05-09T12:16:43.369Z,24.40
2024-05-09T12:18:45.324Z,24.60
2024-05-09T12:20:47.205Z,24.50
2024-05-09T12:22:49.039Z,24.20
2024-05-09T12:24:50.870Z,23.70
2024-05-09T12:26:52.714Z,23.80
2024-05-09T12:28:54.541Z,24.10
2024-05-09T12:30:56.365Z,25.20
2024-05-09T12:32:58.320Z,26.10
2024-05-09T12:35:00.211Z,26.40
2024-05-09T12:37:02.351Z,26.50
2024-05-09T12:39:06.322Z,26.60
2024-05-09T12:41:08.986Z,26.20
2024-05-09T12:43:11.666Z,26.60
2024-05-09T12:45:14.134Z,28.10
2024-05-09T12:47:16.115Z,29.50
2024-05-09T12:49:19.231Z,30.20
2024-05-09T12:51:21.659Z,31.00
2024-05-09T12:53:24.096Z,29.90
2024-05-09T12:55:26.005Z,30.10
2024-05-09T12:57:28.209Z,30.10
2024-05-09T12:59:30.150Z,31.00
2024-05-09T13:01:32.121Z,30.80
2024-05-09T13:03:34.204Z,30.40
2024-05-09T13:05:36.236Z,30.30
2024-05-09T13:07:38.770Z,29.50
2024-05-09T13:09:40.688Z,30.20
2024-05-09T13:11:43.051Z,31.60
2024-05-09T13:13:44.888Z,32.30
2024-05-09T13:15:46.903Z,32.40
2024-05-09T13:17:48.895Z,31.70
2024-05-09T13:19:50.848Z,30.20
2024-05-09T13:21:52.756Z,28.40
2024-05-09T13:23:56.205Z,27.40
2024-05-09T13:25:58.701Z,28.00
2024-05-09T13:28:00.917Z,29.10
2024-05-09T13:32:05.019Z,30.80
2024-05-09T13:34:07.058Z,30.80
2024-05-09T13:36:09.010Z,30.80
2024-05-09T13:38:10.927Z,31.60
2024-05-09T13:40:14.516Z,31.80
2024-05-09T13:42:17.480Z,31.60
2024-05-09T13:44:19.300Z,32.10
2024-05-09T13:46:22.300Z,32.60
2024-05-09T13:48:24.434Z,33.00
2024-05-09T13:50:33.477Z,33.50
2024-05-09T13:52:37.898Z,33.40
2024-05-09T13:54:39.841Z,33.40
2024-05-09T13:56:41.813Z,32.10
2024-05-09T13:58:43.914Z,30.40
2024-05-09T14:00:48.970Z,29.80
2024-05-09T14:02:51.381Z,29.50
2024-05-09T14:04:53.416Z,28.40
2024-05-09T14:06:55.430Z,27.10
2024-05-09T14:08:57.385Z,26.10
2024-05-09T14:10:59.333Z,26.10
2024-05-09T14:13:01.477Z,27.10
2024-05-09T14:15:03.640Z,28.70
2024-05-09T14:17:05.555Z,29.70
2024-05-09T14:19:07.594Z,30.70
2024-05-09T14:21:09.461Z,31.60
2024-05-09T14:23:11.357Z,32.60
2024-05-09T14:25:13.392Z,32.30
2024-05-09T14:27:15.328Z,31.90
2024-05-09T14:29:17.098Z,32.10
2024-05-09T14:31:20.185Z,32.00
2024-05-09T14:33:26.477Z,32.20
2024-05-09T14:35:28.574Z,32.40
2024-05-09T14:37:30.389Z,32.50
2024-05-09T14:39:32.259Z,32.10
2024-05-09T14:41:34.060Z,32.20
2024-05-09T14:43:36.087Z,31.60
2024-05-09T14:45:37.943Z,32.10
2024-05-09T14:47:40.246Z,32.40
2024-05-09T14:49:42.415Z,32.70
2024-05-09T14:51:48.272Z,33.20
2024-05-09T14:53:50.107Z,33.50
2024-05-09T14:55:52.245Z,33.40
2024-05-09T14:57:54.428Z,33.60
2024-05-09T14:59:56.284Z,32.50
2024-05-09T15:01:58.149Z,31.20
2024-05-09T15:04:00.307Z,29.60
2024-05-09T15:06:02.716Z,28.30
2024-05-09T15:08:08.295Z,27.00
2024-05-09T15:10:16.645Z,25.80
2024-05-09T15:12:25.492Z,26.20
2024-05-09T15:14:27.320Z,27.70
2024-05-09T15:16:29.193Z,29.10
2024-05-09T15:18:31.187Z,30.00
2024-05-09T15:20:36.263Z,30.10
2024-05-09T15:22:39.192Z,30.50
2024-05-09T15:24:42.176Z,31.10
2024-05-09T15:26:44.152Z,30.70
2024-05-09T15:28:45.998Z,30.70
2024-05-09T15:30:48.234Z,31.50
2024-05-09T15:32:50.408Z,31.90
2024-05-09T15:34:52.320Z,32.30
2024-05-09T15:36:54.246Z,32.30
2024-05-09T15:38:56.135Z,32.00
2024-05-09T15:40:57.962Z,31.90
2024-05-09T15:42:59.913Z,30.80
2024-05-09T15:45:01.772Z,28.90
2024-05-09T15:47:03.879Z,27.10
2024-05-09T15:49:05.894Z,26.50
2024-05-09T15:51:07.973Z,26.90
2024-05-09T15:53:12.188Z,27.40
2024-05-09T15:55:14.858Z,28.10
2024-05-09T15:57:16.810Z,28.90
2024-05-09T15:59:18.787Z,29.30
2024-05-09T16:01:20.674Z,29.50
2024-05-09T16:03:22.636Z,29.50
2024-05-09T16:05:24.564Z,29.00
2024-05-09T16:07:26.797Z,28.80
2024-05-09T16:09:28.679Z,28.20
2024-05-09T16:11:30.489Z,28.20
2024-05-09T16:13:32.294Z,28.50
2024-05-09T16:15:34.166Z,28.90
2024-05-09T16:17:36.049Z,29.50
2024-05-09T16:19:37.945Z,30.00
2024-05-09T16:21:39.795Z,29.90
2024-05-09T16:23:41.899Z,29.70
2024-05-09T16:25:46.134Z,29.60
2024-05-09T16:27:48.336Z,29.20
2024-05-09T16:29:50.239Z,28.80
2024-05-09T16:31:52.353Z,28.80
2024-05-09T16:33:54.380Z,28.50
2024-05-09T16:35:57.418Z,27.80
2024-05-09T16:38:01.542Z,27.40
2024-05-09T16:40:04.494Z,27.40
2024-05-09T16:42:07.702Z,27.40
2024-05-09T16:44:09.552Z,27.60
2024-05-09T16:46:11.386Z,27.50
2024-05-09T16:48:14.189Z,27.40
2024-05-09T16:50:22.285Z,26.80
2024-05-09T16:52:28.388Z,26.70
2024-05-09T16:54:30.282Z,26.20
2024-05-09T16:56:32.177Z,26.00
2024-05-09T16:58:34.498Z,26.00
2024-05-09T17:00:41.456Z,26.10
2024-05-09T17:02:45.390Z,26.00
2024-05-09T17:04:47.516Z,26.10
2024-05-09T17:06:49.620Z,26.10
2024-05-09T17:08:51.740Z,26.10
2024-05-09T17:10:53.754Z,26.00
2024-05-09T17:12:55.783Z,26.00
2024-05-09T17:14:57.583Z,25.80
2024-05-09T17:16:59.626Z,25.60
2024-05-09T17:19:01.572Z,25.20
2024-05-09T17:21:03.462Z,24.90
2024-05-09T17:23:13.425Z,24.40
2024-05-09T17:25:16.193Z,23.90
2024-05-09T17:27:18.125Z,23.20
2024-05-09T17:29:21.614Z,22.20
2024-05-09T17:31:24.412Z,21.30
2024-05-09T17:33:26.371Z,20.50
2024-05-09T17:35:28.249Z,19.90
2024-05-09T17:37:31.188Z,19.40
2024-05-09T17:39:33.305Z,19.00
2024-05-09T17:41:35.146Z,18.60
2024-05-09T17:43:37.070Z,18.30
2024-05-09T17:45:40.950Z,18.00
2024-05-09T17:47:43.662Z,17.70
2024-05-09T17:49:45.754Z,17.40
2024-05-09T17:51:51.878Z,17.10
2024-05-09T17:53:53.755Z,16.90
2024-05-09T17:55:56.418Z,16.80
2024-05-09T17:57:58.518Z,16.60
2024-05-09T18:00:00.442Z,16.40
2024-05-09T18:02:02.398Z,16.10
2024-05-09T18:04:05.255Z,16.00
2024-05-09T18:06:07.184Z,15.70
2024-05-09T18:08:09.133Z,15.60
2024-05-09T18:10:19.275Z,15.50
2024-05-09T18:12:27.067Z,15.40
2024-05-09T18:14:29.333Z,15.20
2024-05-09T18:16:31.212Z,15.10
2024-05-09T18:18:33.620Z,15.00
2024-05-09T18:20:42.374Z,14.90
2024-05-09T18:22:47.182Z,14.70
2024-05-09T18:24:50.370Z,14.60
2024-05-09T18:26:52.388Z,14.50
2024-05-09T18:28:54.337Z,14.40
2024-05-09T18:30:56.279Z,14.30
2024-05-09T18:32:58.251Z,14.20
2024-05-09T18:35:00.177Z,14.10
2024-05-09T18:37:04.293Z,14.00
2024-05-09T18:39:06.727Z,13.90
2024-05-09T18:41:08.495Z,13.90
2024-05-09T18:43:10.464Z,13.80
2024-05-09T18:45:13.268Z,13.70
2024-05-09T18:47:19.313Z,13.50
2024-05-09T18:49:21.886Z,13.40
2024-05-09T18:51:23.832Z,13.30
2024-05-09T18:53:25.615Z,13.20
2024-05-09T18:55:27.419Z,12.90
2024-05-09T18:57:29.269Z,13.00
2024-05-09T18:59:31.074Z,12.90
2024-05-09T19:01:33.007Z,12.80
2024-05-09T19:03:35.341Z,12.80
2024-05-09T19:05:37.606Z,12.80
2024-05-09T19:07:39.655Z,12.70
2024-05-09T19:09:41.486Z,12.70
2024-05-09T19:11:43.352Z,12.60
2024-05-09T19:13:45.206Z,12.60
2024-05-09T19:15:47.150Z,12.60
2024-05-09T19:17:49.137Z,12.50
2024-05-09T19:19:52.453Z,12.50
2024-05-09T19:21:57.131Z,12.50
2024-05-09T19:23:59.020Z,12.50
2024-05-09T19:26:00.934Z,12.40
2024-05-09T19:28:03.551Z,12.40
2024-05-09T19:30:13.906Z,12.30
2024-05-09T19:32:19.733Z,12.30
2024-05-09T19:34:21.608Z,12.20
2024-05-09T19:36:23.428Z,12.20
2024-05-09T19:38:25.403Z,12.10
2024-05-09T19:40:31.766Z,12.10
2024-05-09T19:42:35.502Z,12.10
2024-05-09T19:44:37.396Z,12.00
2024-05-09T19:46:39.236Z,12.00
2024-05-09T19:48:41.421Z,12.00
2024-05-09T19:50:44.775Z,12.00
2024-05-09T19:52:47.230Z,12.00
2024-05-09T19:54:50.065Z,11.90
2024-05-09T19:56:51.995Z,12.00
2024-05-09T19:58:55.204Z,11.90
2024-05-09T20:00:57.095Z,11.90
2024-05-09T20:02:59.049Z,11.80
2024-05-09T20:05:02.276Z,11.80
2024-05-09T20:07:04.566Z,11.70
2024-05-09T20:09:06.522Z,11.70
2024-05-09T20:11:08.417Z,11.70
2024-05-09T20:13:10.328Z,11.60
2024-05-09T20:15:12.184Z,11.60
2024-05-09T20:17:14.017Z,11.50
2024-05-09T20:19:15.924Z,11.50
2024-05-09T20:21:18.920Z,11.50
2024-05-09T20:23:21.157Z,11.40
2024-05-09T20:25:22.966Z,11.40
2024-05-09T20:27:24.955Z,11.40
2024-05-09T20:29:26.795Z,10.80
2024-05-09T20:31:28.589Z,11.30
2024-05-09T20:33:30.414Z,11.30
2024-05-09T20:35:32.924Z,11.30
2024-05-09T20:37:35.151Z,11.30
2024-05-09T20:39:37.009Z,11.30
2024-05-09T20:41:44.887Z,11.20
2024-05-09T20:43:46.684Z,11.20
2024-05-09T20:45:49.010Z,11.20
2024-05-09T20:47:50.914Z,11.20
2024-05-09T20:49:52.876Z,11.10
2024-05-09T20:51:54.740Z,11.10
2024-05-09T20:53:56.748Z,11.10
2024-05-09T20:55:58.524Z,11.10
2024-05-09T20:58:00.519Z,11.10
2024-05-09T21:00:03.283Z,11.10
2024-05-09T21:02:05.614Z,11.10
2024-05-09T21:04:07.673Z,11.10
2024-05-09T21:06:09.645Z,11.10
2024-05-09T21:08:11.480Z,11.10
2024-05-09T21:10:19.415Z,11.10
2024-05-09T21:12:24.674Z,11.10
2024-05-09T21:14:26.495Z,11.10
2024-05-09T21:16:28.406Z,11.00
2024-05-09T21:18:30.266Z,11.10
2024-05-09T21:20:34.571Z,11.20
2024-05-09T21:22:36.923Z,11.10
2024-05-09T21:24:38.835Z,11.10
2024-05-09T21:26:40.907Z,11.10
2024-05-09T21:28:42.931Z,11.10
2024-05-09T21:30:44.758Z,11.10
2024-05-09T21:32:46.653Z,11.10
2024-05-09T21:34:48.752Z,11.10
2024-05-09T21:36:50.712Z,11.10
2024-05-09T21:38:52.487Z,11.10
2024-05-09T21:40:54.396Z,11.00
2024-05-09T21:42:56.341Z,10.90
2024-05-09T21:44:58.170Z,10.90
2024-05-09T21:47:00.054Z,10.90
2024-05-09T21:49:03.015Z,10.80
2024-05-09T21:51:12.481Z,10.80
2024-05-09T21:53:14.416Z,10.80
2024-05-09T21:55:16.367Z,10.80
2024-05-09T21:57:18.269Z,10.80
2024-05-09T21:59:20.073Z,10.80
2024-05-09T22:01:22.746Z,10.90
2024-05-09T22:03:24.954Z,10.90
2024-05-09T22:05:26.945Z,10.90
2024-05-09T22:07:28.813Z,10.90
2024-05-09T22:09:30.664Z,10.90
2024-05-09T22:11:32.690Z,10.90
2024-05-09T22:13:34.659Z,10.90
2024-05-09T22:15:38.976Z,10.90
2024-05-09T22:17:42.064Z,10.90
2024-05-09T22:19:49.094Z,10.90
2024-05-09T22:21:51.029Z,10.90
2024-05-09T22:23:52.856Z,10.90
2024-05-09T22:25:54.655Z,10.90
2024-05-09T22:27:56.474Z,11.00
2024-05-09T22:29:58.331Z,11.00
2024-05-09T22:32:00.172Z,11.00
2024-05-09T22:34:02.074Z,11.00
2024-05-09T22:36:06.548Z,10.90
2024-05-09T22:38:08.782Z,10.90
2024-05-09T22:40:15.100Z,10.90
2024-05-09T22:42:22.121Z,10.80
2024-05-09T22:44:23.931Z,10.80
2024-05-09T22:46:25.878Z,10.80
2024-05-09T22:48:27.913Z,10.70
2024-05-09T22:50:33.282Z,10.70
2024-05-09T22:52:37.268Z,10.60
2024-05-09T22:54:39.075Z,10.70
2024-05-09T22:56:40.951Z,10.70
2024-05-09T22:58:42.745Z,10.70
2024-05-09T23:00:44.718Z,10.70
2024-05-09T23:02:46.594Z,10.70
2024-05-09T23:04:48.574Z,10.70
2024-05-09T23:06:51.740Z,10.60
2024-05-09T23:08:53.555Z,10.70
2024-05-09T23:10:55.689Z,10.70
2024-05-09T23:12:57.626Z,10.80
2024-05-09T23:14:59.653Z,10.90
2024-05-09T23:17:01.501Z,11.00
2024-05-09T23:19:03.561Z,10.90
2024-05-09T23:21:05.781Z,10.90
2024-05-09T23:23:10.171Z,10.80
2024-05-09T23:25:13.261Z,10.80
2024-05-09T23:27:15.119Z,10.70
2024-05-09T23:29:16.985Z,10.70
2024-05-09T23:31:18.841Z,10.60
2024-05-09T23:33:20.819Z,10.60
2024-05-09T23:35:22.632Z,10.60
2024-05-09T23:37:26.016Z,10.60
2024-05-09T23:39:27.861Z,10.60
2024-05-09T23:41:29.677Z,10.60
2024-05-09T23:43:31.526Z,10.60
2024-05-09T23:45:33.511Z,10.60
2024-05-09T23:47:35.662Z,10.70
2024-05-09T23:49:37.597Z,10.60
2024-05-09T23:51:39.515Z,10.50
2024-05-09T23:53:47.735Z,10.50
2024-05-09T23:55:49.522Z,10.40
2024-05-09T23:57:51.325Z,10.50
2024-05-09T23:59:53.442Z,10.40
